TimeCDT,TemperatureF,Dew PointF,Humidity,Sea Level PressureIn,VisibilityMPH,Wind Direction,Wind SpeedMPH,Gust SpeedMPH,PrecipitationIn,Events,Conditions,WindDirDegrees,DateUTC
12:15 AM,46.8,40.1,78,30.17,10.0,Calm,Calm,-,N/A,,Clear,0,2012-10-30 05:15:00
12:35 AM,45.9,39.6,79,30.16,10.0,Calm,Calm,-,N/A,,Clear,0,2012-10-30 05:35:00
12:45 AM,55.4,51.8,88,29.11,6.0,SE,28.8,44.9,N/A,Rain,Light Rain,140,2012-10-30 05:45:00
12:55 AM,44.8,39.7,82,30.15,10.0,Calm,Calm,-,N/A,,Clear,0,2012-10-30 05:55:00
1:15 AM,43.5,38.8,84,30.15,10.0,Calm,Calm,-,N/A,,Clear,0,2012-10-30 06:15:00
1:35 AM,43.9,39.7,85,30.15,10.0,Calm,Calm,-,N/A,,Clear,0,2012-10-30 06:35:00
1:55 AM,43.0,39.7,88,30.15,10.0,Calm,Calm,-,N/A,,Clear,0,2012-10-30 06:55:00
2:55 AM,41.0,38.5,91,30.14,10.0,Calm,Calm,-,N/A,,Clear,0,2012-10-30 07:55:00
3:15 AM,41.0,37.9,89,30.14,10.0,Calm,Calm,-,N/A,,Clear,0,2012-10-30 08:15:00
3:55 AM,40.8,37.9,89,30.14,10.0,Calm,Calm,-,N/A,,Clear,0,2012-10-30 08:55:00
4:15 AM,42.1,39.0,89,30.14,10.0,Calm,Calm,-,N/A,,Clear,0,2012-10-30 09:15:00
4:35 AM,43.5,39.2,85,30.14,10.0,Calm,Calm,-,N/A,,Clear,0,2012-10-30 09:35:00
4:55 AM,43.0,38.8,85,30.14,10.0,Calm,Calm,-,N/A,,Clear,0,2012-10-30 09:55:00
5:15 AM,41.4,38.5,89,30.14,10.0,Calm,Calm,-,N/A,,Clear,0,2012-10-30 10:15:00
5:35 AM,42.1,38.3,86,30.14,10.0,Calm,Calm,-,N/A,,Clear,0,2012-10-30 10:35:00
5:55 AM,42.3,39.2,89,30.15,10.0,Calm,Calm,-,N/A,,Clear,0,2012-10-30 10:55:00
6:00 AM,42.8,39.2,87,30.15,10.0,Calm,Calm,-,N/A,,Clear,0,2012-10-30 11:00:00
6:45 AM,39.2,35.6,87,30.14,10.0,Calm,Calm,-,N/A,,Clear,0,2012-10-30 11:45:00
7:45 AM,39.2,37.4,93,30.15,10.0,Calm,Calm,-,N/A,,Clear,0,2012-10-30 12:45:00
8:50 AM,48.2,42.8,82,30.15,10.0,Calm,Calm,-,N/A,,Clear,0,2012-10-30 13:50:00
9:45 AM,53.6,41.0,62,30.15,10.0,Calm,Calm,-,N/A,,Clear,0,2012-10-30 14:45:00
10:50 AM,60.8,37.4,42,30.15,10.0,Calm,Calm,-,N/A,,Clear,0,2012-10-30 15:50:00
11:45 AM,64.4,35.6,34,30.14,10.0,SW,4.6,-,N/A,,Clear,220,2012-10-30 16:45:00
12:45 PM,66.2,35.6,32,30.12,10.0,Calm,Calm,-,N/A,,Clear,0,2012-10-30 17:45:00
1:45 PM,69.8,35.6,28,30.08,10.0,Variable,3.5,-,N/A,,Clear,0,2012-10-30 18:45:00
2:45 PM,71.6,37.4,29,30.06,10.0,WSW,5.8,-,N/A,,Clear,240,2012-10-30 19:45:00
3:45 PM,71.6,37.4,29,30.04,10.0,WSW,5.8,-,N/A,,Clear,240,2012-10-30 20:45:00
4:45 PM,71.6,37.4,29,30.03,10.0,SSW,8.1,-,N/A,,Clear,210,2012-10-30 21:45:00
5:50 PM,66.2,44.6,46,30.03,10.0,South,9.2,-,N/A,,Clear,180,2012-10-30 22:50:00
6:55 PM,62.6,48.2,59,30.04,10.0,SSW,6.9,-,N/A,,Clear,200,2012-10-30 23:55:00
7:50 PM,59.0,48.2,67,30.05,10.0,SSW,3.5,-,N/A,,Clear,210,2012-10-31 00:50:00
8:50 PM,55.4,50.0,82,30.05,10.0,SSE,3.5,-,N/A,,Clear,150,2012-10-31 01:50:00
9:50 PM,53.6,50.0,88,30.06,10.0,Calm,Calm,-,N/A,,Clear,0,2012-10-31 02:50:00
10:15 PM,51.8,48.2,88,30.05,10.0,Calm,Calm,-,N/A,,Clear,0,2012-10-31 03:15:00
10:35 PM,52.2,49.1,89,30.05,10.0,Calm,Calm,-,N/A,,Clear,0,2012-10-31 03:35:00
10:55 PM,53.1,50.7,92,30.05,10.0,Calm,Calm,-,N/A,,Clear,0,2012-10-31 03:55:00
11:15 PM,51.8,49.3,91,30.04,10.0,Calm,Calm,-,N/A,,Clear,0,2012-10-31 04:15:00
11:35 PM,50.7,48.0,90,30.04,10.0,Calm,Calm,-,N/A,,Clear,0,2012-10-31 04:35:00
11:55 PM,51.6,49.5,92,30.04,10.0,Calm,Calm,-,N/A,,Clear,0,2012-10-31 04:55:00